METAR AND TAF INFORMATION
METAR FOR KTVL
ADDS - METARS form results

(0258 UTC 17 May 2021)
Data provider http://aviationweather.gov/metar/data/
 
METAR text: KTVL 170253Z AUTO 00000KT 10SM -RA SCT080 BKN095 11/10 A3003 RMK AO2 LTG DSNT N AND E AND SW RAB0159 SLP140 P0005 60005 T01110100 53009
Conditions at: KTVL (SOUTH LAKE TAHOE, CA, US) observed 0253 UTC 17 May 2021
Temperature: 11.1°C (52°F)
Dewpoint: 10.0°C (50°F) [RH = 93%]
Pressure (altimeter): 30.03 inches Hg (1017.0 mb)
[Sea-level pressure: 1014.0 mb]
Winds: calm
Visibility: 10 or more miles (16+ km)
Ceiling: 9500 feet AGL
Clouds: scattered clouds at 8000 feet AGL
broken clouds at 9500 feet AGL
Weather: -RA  (light rain)

METAR text: KTVL 170233Z AUTO 00000KT 6SM -RA BR FEW041 SCT060 BKN075 11/09 A3004 RMK AO2 LTG DSNT NE-S RAB0159 P0005 T01110094
Conditions at: KTVL (SOUTH LAKE TAHOE, CA, US) observed 0233 UTC 17 May 2021
Temperature: 11.1°C (52°F)
Dewpoint: 9.4°C (49°F) [RH = 89%]
Pressure (altimeter): 30.04 inches Hg (1017.4 mb)
Winds: calm
Visibility: 6 miles (10 km)
Ceiling: 7500 feet AGL
Clouds: few clouds at 4100 feet AGL
scattered clouds at 6000 feet AGL
broken clouds at 7500 feet AGL
Weather: -RA BR  (light rain, mist)

METAR text: KTVL 170230Z AUTO 00000KT 2 1/2SM -RA BR SCT047 SCT060 BKN075 11/09 A3004 RMK AO2 LTG DSNT NE-S RAB0159 P0005 T01110094
Conditions at: KTVL (SOUTH LAKE TAHOE, CA, US) observed 0230 UTC 17 May 2021
Temperature: 11.1°C (52°F)
Dewpoint: 9.4°C (49°F) [RH = 89%]
Pressure (altimeter): 30.04 inches Hg (1017.4 mb)
Winds: calm
Visibility: 2.50 miles (4.02 km)
Ceiling: 7500 feet AGL
Clouds: scattered clouds at 4700 feet AGL
scattered clouds at 6000 feet AGL
broken clouds at 7500 feet AGL
Weather: -RA BR  (light rain, mist)

METAR text: KTVL 170217Z AUTO 00000KT 4SM -RA SCT050 BKN070 OVC100 12/08 A3004 RMK AO2 LTG DSNT NE-S RAB0159 P0002 T01220078
Conditions at: KTVL (SOUTH LAKE TAHOE, CA, US) observed 0217 UTC 17 May 2021
Temperature: 12.2°C (54°F)
Dewpoint: 7.8°C (46°F) [RH = 74%]
Pressure (altimeter): 30.04 inches Hg (1017.4 mb)
Winds: calm
Visibility: 4 miles ( 6 km)
Ceiling: 7000 feet AGL
Clouds: scattered clouds at 5000 feet AGL
broken clouds at 7000 feet AGL
overcast cloud deck at 10000 feet AGL
Weather: -RA  (light rain)

METAR text: KTVL 170210Z AUTO 00000KT 5SM RA SCT050 OVC065 14/06 A3003 RMK AO2 LTG DSNT NE-S RAB0159 P0001 T01390061
Conditions at: KTVL (SOUTH LAKE TAHOE, CA, US) observed 0210 UTC 17 May 2021
Temperature: 13.9°C (57°F)
Dewpoint: 6.1°C (43°F) [RH = 59%]
Pressure (altimeter): 30.03 inches Hg (1017.0 mb)
Winds: calm
Visibility: 5 miles ( 8 km)
Ceiling: 6500 feet AGL
Clouds: scattered clouds at 5000 feet AGL
overcast cloud deck at 6500 feet AGL
Weather: RA  (moderate rain)

Forecast for: KTVL (SOUTH LAKE TAHOE, CA, US)
Text: KTVL 162320Z 1700/1724 05005KT P6SM VCSH SCT025 BKN045
Forecast period: 0000 to 0200 UTC 17 May 2021
Forecast type: FROM: standard forecast or significant change
Winds: from the NE (50 degrees) at 6 MPH (5 knots; 2.6 m/s)
Visibility: 6 or more miles (10+ km)
Ceiling: 4500 feet AGL
Clouds: scattered clouds at 2500 feet AGL
broken clouds at 4500 feet AGL
Weather: VCSH  (showers in vicinity)
Text: FM170200 19003KT P6SM SCT020
Forecast period: 0200 to 2100 UTC 17 May 2021
Forecast type: FROM: standard forecast or significant change
Winds: from the S (190 degrees) at 3 MPH (3 knots; 1.5 m/s)
Visibility: 6 or more miles (10+ km)
Ceiling: at least 12,000 feet AGL
Clouds: scattered clouds at 2000 feet AGL
Weather: no significant weather forecast for this period
Text: FM172100 27010G18KT P6SM FEW250
Forecast period: 2100 UTC 17 May 2021 to 0000 UTC 18 May 2021
Forecast type: FROM: standard forecast or significant change
Winds: from the W (270 degrees) at 12 MPH (10 knots; 5.1 m/s)
gusting to 21 MPH (18 knots; 9.3 m/s)
Visibility: 6 or more miles (10+ km)
Ceiling: at least 12,000 feet AGL
Clouds: few clouds at 25000 feet AGL
Weather: no significant weather forecast for this period

 AIRPORT MAP

 RUNWAY INFORMATION
Runway 18 Runway length 8544 ft Runway width 150 ft
Runway elevation 6251 ft Runway displaced threshold 0 ft Runway heading 193
Runway 36 Runway length 8544 ft Runway width 150 ft
Runway elevation 6259 ft Runway displaced threshold 2037 ft Runway heading 13

 AIRPORT FREQUENCIES
Type ASOS Name ASOS Frequency 124.725 MHZ
Type CNTR Name OAKLAND CN Frequency 127.95 MHZ
Type CTAF Name CTAF Frequency 122.95 MHZ
Type RDO Name RENO RDO Frequency 122.25 MHZ
Type UNIC Name UNICOM Frequency 122.95 MHZ

 AIRPORT NEAR NAVIGATION AIDS

-